Time;durP1;ratioP1;P1;durP2;ratioP2;P2;SDS_P1;SDS_P2;PMS_P1;PMS_P2;Temp;Humidity;BMP_temperature;BMP_pressure;BME280_temperature;BME280_humidity;BME280_pressure;Samples;Min_cycle;Max_cycle;Signal;HPM_P1;HPM_P2
2024/01/24 00:02:08;;;;;;;557.00;278.40;;;0.00;99.90;;;;;;5094754;28;20020;-54
2024/01/24 00:04:34;;;;;;;548.58;270.60;;;0.10;99.90;;;;;;5094522;28;20398;-54
2024/01/24 00:07:00;;;;;;;548.55;266.25;;;0.00;99.90;;;;;;5094257;28;20062;-54
2024/01/24 00:09:26;;;;;;;587.45;289.42;;;0.10;99.90;;;;;;5094121;28;20036;-54
2024/01/24 00:11:52;;;;;;;567.03;275.80;;;0.10;99.90;;;;;;5094738;28;20024;-54
2024/01/24 00:14:17;;;;;;;591.45;289.50;;;0.20;99.90;;;;;;5094013;28;20025;-54
2024/01/24 00:16:43;;;;;;;583.60;282.80;;;0.20;99.90;;;;;;5094325;28;20032;-54
2024/01/24 00:19:09;;;;;;;583.50;292.23;;;0.20;99.90;;;;;;5094260;28;20089;-54
2024/01/24 00:21:37;;;;;;;628.08;314.85;;;0.30;99.90;;;;;;5094386;28;20470;-54
2024/01/24 00:24:03;;;;;;;608.67;302.38;;;0.30;99.90;;;;;;5094361;28;20036;-54
2024/01/24 00:26:28;;;;;;;599.53;295.13;;;0.30;99.90;;;;;;5094033;28;20458;-54
2024/01/24 00:28:54;;;;;;;595.72;296.98;;;0.30;99.90;;;;;;5094211;28;20036;-54
2024/01/24 00:31:20;;;;;;;602.67;299.90;;;0.30;99.90;;;;;;5094068;28;20028;-54
2024/01/24 00:33:46;;;;;;;609.30;296.15;;;0.40;99.90;;;;;;5094227;28;20032;-54
2024/01/24 00:36:12;;;;;;;603.55;300.35;;;0.50;99.90;;;;;;5093867;28;20024;-54
2024/01/24 00:38:37;;;;;;;609.10;294.60;;;0.50;99.90;;;;;;5093873;28;20074;-54
2024/01/24 00:41:03;;;;;;;637.40;302.77;;;0.40;99.90;;;;;;5094434;28;20103;-54
2024/01/24 00:43:29;;;;;;;580.88;277.17;;;0.50;99.90;;;;;;5094174;28;20035;-54
2024/01/24 00:45:56;;;;;;;627.63;291.20;;;0.40;99.90;;;;;;5093835;28;20039;-54
2024/01/24 00:48:22;;;;;;;567.97;244.38;;;0.50;99.90;;;;;;5093864;28;20044;-54
2024/01/24 00:50:47;;;;;;;463.63;203.18;;;0.50;99.90;;;;;;5093952;28;20377;-54
2024/01/24 00:53:20;;;;;;;501.30;222.02;;;0.50;99.90;;;;;;5093868;28;20016;-54
2024/01/24 00:55:46;;;;;;;516.67;217.90;;;0.50;99.90;;;;;;5094572;28;20077;-54
2024/01/24 00:58:12;;;;;;;423.08;171.57;;;0.50;99.90;;;;;;5093717;28;20082;-54
2024/01/24 01:00:39;;;;;;;443.10;188.02;;;0.50;99.90;;;;;;5093618;28;20047;-54
2024/01/24 01:03:05;;;;;;;429.05;189.27;;;0.70;99.90;;;;;;5093976;28;20035;-54
2024/01/24 01:05:30;;;;;;;576.75;234.90;;;0.70;99.90;;;;;;5093809;28;20111;-54
2024/01/24 01:07:56;;;;;;;404.38;165.35;;;0.70;99.90;;;;;;5093402;28;20100;-54
2024/01/24 01:10:22;;;;;;;403.88;175.20;;;0.70;99.90;;;;;;5093702;28;20023;-54
2024/01/24 01:12:48;;;;;;;636.33;230.23;;;0.80;99.90;;;;;;5093919;28;20058;-54
2024/01/24 01:15:14;;;;;;;395.50;156.20;;;0.70;99.90;;;;;;5093554;28;20067;-54
2024/01/24 01:17:40;;;;;;;363.40;144.95;;;0.80;99.90;;;;;;5093339;28;20031;-54
2024/01/24 01:20:06;;;;;;;380.27;152.55;;;0.70;99.90;;;;;;5093626;28;20111;-54
2024/01/24 01:22:32;;;;;;;354.48;145.40;;;0.70;99.90;;;;;;5092561;28;20118;-54
2024/01/24 01:24:58;;;;;;;321.63;137.90;;;0.70;99.90;;;;;;5093878;28;20032;-54
2024/01/24 01:27:24;;;;;;;449.17;169.32;;;0.80;99.90;;;;;;5097676;28;20118;-54
2024/01/24 01:29:50;;;;;;;386.23;156.57;;;0.70;99.90;;;;;;5097470;28;20027;-54
2024/01/24 01:32:17;;;;;;;356.90;146.73;;;0.60;99.90;;;;;;5097770;28;20119;-54
2024/01/24 01:34:43;;;;;;;376.25;150.15;;;0.80;99.90;;;;;;5097508;28;20491;-54
2024/01/24 01:37:08;;;;;;;329.73;143.02;;;0.80;99.90;;;;;;5097221;28;20116;-54
2024/01/24 01:39:34;;;;;;;311.52;133.70;;;0.90;99.90;;;;;;5097280;28;20050;-54
2024/01/24 01:42:00;;;;;;;387.88;142.40;;;0.80;99.90;;;;;;5097348;28;20115;-54
2024/01/24 01:44:26;;;;;;;302.50;121.32;;;0.60;99.90;;;;;;5097377;28;20393;-54
2024/01/24 01:46:52;;;;;;;279.95;115.30;;;0.70;99.90;;;;;;5096960;28;20032;-54
2024/01/24 01:49:19;;;;;;;407.35;140.55;;;0.60;99.90;;;;;;5097088;28;20040;-54
2024/01/24 01:51:46;;;;;;;269.50;111.07;;;0.70;99.90;;;;;;5096809;28;20493;-54
2024/01/24 01:54:14;;;;;;;283.00;115.28;;;0.60;99.90;;;;;;5097105;28;20060;-54
2024/01/24 01:56:41;;;;;;;316.08;122.60;;;0.70;99.90;;;;;;5096929;28;20028;-54
2024/01/24 01:59:08;;;;;;;433.05;171.57;;;0.60;99.90;;;;;;5096828;28;20024;-54
2024/01/24 02:01:34;;;;;;;368.92;145.40;;;0.70;99.90;;;;;;5096869;28;20430;-54
2024/01/24 02:04:00;;;;;;;454.05;151.90;;;0.70;99.90;;;;;;5096882;28;20119;-54
2024/01/24 02:06:30;;;;;;;392.85;143.25;;;0.60;99.90;;;;;;5096742;28;20035;-54
2024/01/24 02:08:56;;;;;;;369.90;138.30;;;0.40;99.90;;;;;;5096527;28;20028;-54
2024/01/24 02:11:22;;;;;;;397.10;141.75;;;0.40;99.90;;;;;;5096880;28;20024;-54
2024/01/24 02:13:48;;;;;;;269.50;112.88;;;0.40;99.90;;;;;;5096770;28;20020;-54
2024/01/24 02:16:14;;;;;;;292.05;120.05;;;0.50;99.90;;;;;;5096462;28;20051;-54
2024/01/24 02:18:42;;;;;;;284.77;119.25;;;0.50;99.90;;;;;;5096465;28;20097;-54
2024/01/24 02:21:08;;;;;;;298.48;118.35;;;0.60;99.90;;;;;;5096674;28;20032;-54
2024/01/24 02:23:35;;;;;;;275.92;114.30;;;0.70;99.90;;;;;;5096368;28;20025;-54
2024/01/24 02:26:01;;;;;;;313.75;128.77;;;0.60;99.90;;;;;;5096385;28;20032;-54
2024/01/24 02:28:26;;;;;;;431.15;145.80;;;0.60;99.90;;;;;;5096484;28;20435;-54
2024/01/24 02:30:52;;;;;;;276.77;110.80;;;0.60;99.90;;;;;;5096107;28;20031;-54
2024/01/24 02:33:18;;;;;;;453.73;143.80;;;0.70;99.90;;;;;;5095272;28;20024;-54
2024/01/24 02:35:44;;;;;;;287.65;116.07;;;0.60;99.90;;;;;;5096149;28;20085;-54
2024/01/24 02:38:10;;;;;;;367.33;132.48;;;0.50;99.90;;;;;;5094423;28;20040;-54
2024/01/24 02:40:36;;;;;;;554.78;158.27;;;0.50;99.90;;;;;;5096589;28;20069;-54
2024/01/24 02:43:02;;;;;;;311.77;115.55;;;0.40;99.90;;;;;;5096364;28;20057;-54
2024/01/24 02:45:28;;;;;;;333.77;122.63;;;0.40;99.90;;;;;;5095676;28;20028;-54
2024/01/24 02:47:54;;;;;;;296.10;116.97;;;0.60;99.90;;;;;;5095739;28;20465;-55
2024/01/24 02:50:20;;;;;;;304.98;120.18;;;0.60;99.90;;;;;;5096098;28;20031;-54
2024/01/24 02:52:45;;;;;;;519.67;143.43;;;0.70;99.90;;;;;;5095871;28;20200;-54
2024/01/24 02:55:17;;;;;;;358.85;117.72;;;0.60;99.90;;;;;;5096197;28;20043;-54
2024/01/24 02:57:45;;;;;;;343.35;116.97;;;0.60;99.90;;;;;;5095518;28;20052;-54
2024/01/24 03:00:12;;;;;;;285.70;109.93;;;0.50;99.90;;;;;;5092871;28;20070;-54
2024/01/24 03:02:39;;;;;;;521.50;136.85;;;0.40;99.90;;;;;;5096162;28;20032;-54
2024/01/24 03:05:08;;;;;;;253.43;100.03;;;0.20;99.90;;;;;;5095987;28;20028;-54
2024/01/24 03:07:35;;;;;;;267.00;102.22;;;0.20;99.90;;;;;;5095745;28;20494;-54
2024/01/24 03:10:02;;;;;;;274.10;101.22;;;0.20;99.90;;;;;;5095539;28;20024;-54
2024/01/24 03:12:28;;;;;;;240.07;102.18;;;0.20;99.90;;;;;;5095908;28;20028;-54
2024/01/24 03:14:54;;;;;;;242.52;101.35;;;0.20;99.90;;;;;;5095593;28;20474;-54
2024/01/24 03:17:20;;;;;;;241.75;100.93;;;0.30;99.90;;;;;;5095955;28;20046;-54
2024/01/24 03:19:46;;;;;;;283.20;109.32;;;0.40;99.90;;;;;;5095865;28;20023;-54
2024/01/24 03:22:12;;;;;;;376.35;121.03;;;0.40;99.90;;;;;;5095415;28;20066;-54
2024/01/24 03:24:38;;;;;;;259.17;106.82;;;0.40;99.90;;;;;;5095827;28;20020;-54
2024/01/24 03:27:04;;;;;;;297.15;105.15;;;0.20;99.90;;;;;;5095436;28;20055;-54
2024/01/24 03:29:30;;;;;;;331.58;110.03;;;0.10;99.90;;;;;;5095432;28;20096;-54
2024/01/24 03:31:56;;;;;;;270.58;108.68;;;0.20;99.90;;;;;;5095465;28;20048;-54
2024/01/24 03:34:23;;;;;;;283.60;107.57;;;0.20;99.90;;;;;;5095612;28;20050;-54
2024/01/24 03:36:49;;;;;;;292.00;108.10;;;0.20;99.90;;;;;;5095191;28;20032;-54
2024/01/24 03:39:15;;;;;;;296.70;111.10;;;0.30;99.90;;;;;;5095615;28;20028;-54
2024/01/24 03:41:40;;;;;;;329.67;114.80;;;0.30;99.90;;;;;;5094970;28;20028;-54
2024/01/24 03:44:06;;;;;;;360.45;123.68;;;0.30;99.90;;;;;;5095225;28;20555;-54
2024/01/24 03:46:32;;;;;;;264.02;111.13;;;0.10;99.90;;;;;;5095229;28;20031;-54
2024/01/24 03:48:58;;;;;;;284.58;108.63;;;0.20;99.90;;;;;;5094946;28;20417;-54
2024/01/24 03:51:24;;;;;;;263.40;107.18;;;0.30;99.90;;;;;;5094711;28;20032;-54
2024/01/24 03:53:50;;;;;;;350.70;115.85;;;0.30;99.90;;;;;;5095190;28;20063;-54
2024/01/24 03:56:17;;;;;;;238.55;98.15;;;0.20;99.90;;;;;;5095288;28;20397;-54
2024/01/24 03:58:42;;;;;;;228.32;96.50;;;0.20;99.90;;;;;;5094798;28;20024;-54
2024/01/24 04:01:10;;;;;;;226.25;93.43;;;0.20;99.90;;;;;;5095413;28;20080;-54
2024/01/24 04:03:36;;;;;;;217.45;92.13;;;0.30;99.90;;;;;;5095369;28;20040;-54
2024/01/24 04:06:02;;;;;;;220.73;90.10;;;0.40;99.90;;;;;;5094651;28;20035;-54
2024/01/24 04:08:28;;;;;;;228.15;97.25;;;0.40;99.90;;;;;;5094703;28;20296;-54
2024/01/24 04:10:54;;;;;;;216.93;94.45;;;0.40;99.90;;;;;;5094788;28;20154;-54
2024/01/24 04:13:20;;;;;;;208.73;89.68;;;0.40;99.90;;;;;;5094760;28;20040;-54
2024/01/24 04:15:46;;;;;;;209.02;85.32;;;0.40;99.90;;;;;;5094905;28;20027;-54
2024/01/24 04:18:11;;;;;;;192.98;84.15;;;0.30;99.90;;;;;;5094573;28;20036;-54
2024/01/24 04:20:37;;;;;;;206.48;84.00;;;0.30;99.90;;;;;;5094465;28;20478;-54
2024/01/24 04:23:03;;;;;;;236.07;88.18;;;0.40;99.90;;;;;;5094813;28;20527;-54
2024/01/24 04:25:30;;;;;;;228.05;86.22;;;0.20;99.90;;;;;;5094625;28;20035;-54
2024/01/24 04:27:56;;;;;;;237.93;84.70;;;0.20;99.90;;;;;;5094097;28;20024;-54
2024/01/24 04:30:22;;;;;;;193.43;78.10;;;0.10;99.90;;;;;;5094666;28;20485;-54
2024/01/24 04:32:48;;;;;;;166.30;72.05;;;0.10;99.90;;;;;;5094517;28;20028;-54
2024/01/24 04:35:14;;;;;;;178.73;74.00;;;0.20;99.90;;;;;;5094371;28;20374;-54
2024/01/24 04:37:40;;;;;;;189.45;75.85;;;0.20;99.90;;;;;;5094328;28;20032;-54
2024/01/24 04:40:06;;;;;;;201.35;76.90;;;0.10;99.90;;;;;;5094325;28;20107;-54
2024/01/24 04:42:32;;;;;;;188.27;75.60;;;0.00;99.90;;;;;;5092869;28;20043;-54
2024/01/24 04:44:58;;;;;;;188.85;76.68;;;0.10;99.90;;;;;;5094389;28;20024;-54
2024/01/24 04:47:24;;;;;;;215.15;82.22;;;0.20;99.90;;;;;;5094532;28;20028;-54
2024/01/24 04:49:50;;;;;;;190.98;75.82;;;0.20;99.90;;;;;;5094097;28;20024;-54
2024/01/24 04:52:16;;;;;;;191.73;72.07;;;0.10;99.90;;;;;;5094370;28;20028;-54
2024/01/24 04:54:42;;;;;;;162.38;71.40;;;0.20;99.90;;;;;;5094488;28;20028;-54
2024/01/24 04:57:08;;;;;;;174.57;72.82;;;0.20;99.90;;;;;;5093919;28;20028;-54
2024/01/24 04:59:33;;;;;;;178.68;76.43;;;0.20;99.90;;;;;;5093958;28;20427;-54
2024/01/24 05:01:59;;;;;;;262.17;87.47;;;0.20;99.90;;;;;;5097827;28;20040;-54
2024/01/24 05:04:25;;;;;;;225.82;80.50;;;0.10;99.90;;;;;;5098277;28;20028;-54
2024/01/24 05:06:52;;;;;;;222.23;77.82;;;-0.20;99.90;;;;;;5098471;28;20028;-54
2024/01/24 05:09:18;;;;;;;199.85;77.93;;;-0.20;99.90;;;;;;5098029;28;20016;-54
2024/01/24 05:11:44;;;;;;;286.42;90.28;;;-0.30;99.90;;;;;;5097848;28;20206;-54
2024/01/24 05:14:10;;;;;;;260.60;80.93;;;-0.40;99.90;;;;;;5098216;28;20108;-54
2024/01/24 05:16:40;;;;;;;631.03;106.07;;;-0.40;99.90;;;;;;5098296;28;20035;-54
2024/01/24 05:19:06;;;;;;;;;;;-0.40;99.90;;;;;;5098424;28;20028;-54
2024/01/24 05:21:40;;;;;;;293.38;84.60;;;-0.40;99.90;;;;;;5097788;28;19908;-54
2024/01/24 05:24:06;;;;;;;228.65;82.95;;;-0.50;99.90;;;;;;5097916;28;20604;-54
2024/01/24 05:26:32;;;;;;;224.10;84.68;;;-0.50;99.90;;;;;;5097843;28;20028;-54
2024/01/24 05:28:58;;;;;;;261.15;90.50;;;-0.50;99.90;;;;;;5098014;28;20090;-54
2024/01/24 05:31:24;;;;;;;269.65;96.03;;;-0.50;99.90;;;;;;5097899;28;20031;-54
2024/01/24 05:33:50;;;;;;;303.23;86.88;;;-0.40;99.90;;;;;;5097487;28;20057;-54
2024/01/24 05:36:16;;;;;;;341.83;92.10;;;-0.20;99.90;;;;;;5097808;28;20393;-54
2024/01/24 05:38:41;;;;;;;242.13;85.53;;;-0.30;99.90;;;;;;5097563;28;20054;-54
2024/01/24 05:41:09;;;;;;;261.75;88.97;;;-0.30;99.90;;;;;;5097551;28;20043;-54
2024/01/24 05:43:34;;;;;;;457.83;103.40;;;-0.40;99.90;;;;;;5097609;28;20036;-54
2024/01/24 05:46:00;;;;;;;216.60;84.65;;;-0.40;99.90;;;;;;5097566;28;20024;-54
2024/01/24 05:48:26;;;;;;;368.42;102.03;;;-0.40;99.90;;;;;;5097416;28;20056;-54
2024/01/24 05:50:52;;;;;;;261.38;91.95;;;-0.40;99.90;;;;;;5097299;28;20055;-54
2024/01/24 05:53:18;;;;;;;380.90;105.40;;;-0.30;99.90;;;;;;5097245;28;20366;-54
2024/01/24 05:55:44;;;;;;;278.67;103.40;;;-0.10;99.90;;;;;;5097384;28;20080;-54
2024/01/24 05:58:10;;;;;;;335.88;87.65;;;-0.20;99.90;;;;;;5097422;28;20058;-54
2024/01/24 06:00:36;;;;;;;255.77;88.43;;;-0.20;99.90;;;;;;5097031;28;20027;-54
2024/01/24 06:03:02;;;;;;;273.50;87.55;;;-0.30;99.90;;;;;;5097219;28;20044;-54
2024/01/24 06:05:28;;;;;;;299.33;96.88;;;-0.30;99.90;;;;;;5096882;28;20030;-54
2024/01/24 06:07:54;;;;;;;301.10;98.25;;;-0.40;99.90;;;;;;5097294;28;20088;-54
2024/01/24 06:10:20;;;;;;;276.70;84.63;;;-0.50;99.90;;;;;;5097019;28;20020;-54
2024/01/24 06:12:46;;;;;;;281.00;88.32;;;-0.40;99.90;;;;;;5096597;28;20074;-54
2024/01/24 06:15:12;;;;;;;499.33;112.47;;;-0.40;99.90;;;;;;5096838;28;20032;-54
2024/01/24 06:17:38;;;;;;;449.98;105.82;;;-0.50;99.90;;;;;;5096896;28;20024;-54
2024/01/24 06:20:04;;;;;;;324.20;104.10;;;-0.50;99.90;;;;;;5096820;28;20077;-54
2024/01/24 06:22:31;;;;;;;296.80;118.40;;;-0.60;99.90;;;;;;5095877;28;20082;-54
2024/01/24 06:24:57;;;;;;;230.73;92.43;;;-0.60;99.90;;;;;;5096275;28;20020;-54
2024/01/24 06:27:23;;;;;;;238.73;94.78;;;-0.50;99.90;;;;;;5096429;28;20099;-54
2024/01/24 06:29:51;;;;;;;295.83;106.65;;;-0.40;99.90;;;;;;5097001;28;20052;-54
2024/01/24 06:32:16;;;;;;;291.88;105.13;;;-0.40;99.90;;;;;;5096424;28;20043;-54
2024/01/24 06:34:42;;;;;;;302.17;108.25;;;-0.40;99.90;;;;;;5095537;28;20032;-54
2024/01/24 06:37:09;;;;;;;250.90;103.60;;;-0.30;99.90;;;;;;5095515;28;20028;-54
2024/01/24 06:39:35;;;;;;;409.33;122.68;;;-0.20;99.90;;;;;;5094344;28;20036;-54
2024/01/24 06:42:01;;;;;;;322.95;114.40;;;-0.30;99.90;;;;;;5093994;28;20652;-54
2024/01/24 06:44:27;;;;;;;269.08;108.43;;;-0.40;99.90;;;;;;5092224;28;20390;-54
2024/01/24 06:46:53;;;;;;;438.88;134.60;;;-0.30;99.90;;;;;;5086971;28;20028;-54
2024/01/24 06:49:19;;;;;;;335.02;122.00;;;-0.30;99.90;;;;;;5075391;28;20020;-54
2024/01/24 06:51:45;;;;;;;296.00;118.20;;;-0.30;99.90;;;;;;5075744;28;20516;-54
2024/01/24 06:54:13;;;;;;;319.92;121.10;;;-0.30;99.90;;;;;;5075595;28;20172;-54
2024/01/24 06:56:38;;;;;;;306.67;116.45;;;-0.30;99.90;;;;;;5075286;28;20393;-54
2024/01/24 06:59:04;;;;;;;429.65;137.63;;;-0.30;99.90;;;;;;5081369;28;20035;-54
2024/01/24 07:01:30;;;;;;;289.38;117.82;;;-0.60;99.90;;;;;;5091746;28;20526;-54
2024/01/24 07:03:56;;;;;;;452.88;140.32;;;-0.40;99.90;;;;;;5095262;28;20039;-54
2024/01/24 07:06:22;;;;;;;379.83;127.97;;;-0.30;99.90;;;;;;5086611;28;20028;-54
2024/01/24 07:08:47;;;;;;;389.90;129.70;;;-0.20;99.90;;;;;;5092827;28;20028;-54
2024/01/24 07:11:13;;;;;;;411.33;137.30;;;-0.30;99.90;;;;;;5094824;28;20016;-54
2024/01/24 07:13:39;;;;;;;331.90;124.10;;;-0.40;99.90;;;;;;5093642;28;20040;-54
2024/01/24 07:16:07;;;;;;;325.77;125.07;;;-0.20;99.90;;;;;;5094594;28;20034;-54
2024/01/24 07:18:33;;;;;;;331.67;123.18;;;-0.10;99.90;;;;;;5094234;28;20478;-54
2024/01/24 07:21:00;;;;;;;314.67;125.28;;;0.10;99.90;;;;;;5094727;28;20032;-54
2024/01/24 07:23:26;;;;;;;353.58;135.00;;;0.20;99.90;;;;;;5079866;28;20040;-54
2024/01/24 07:25:53;;;;;;;349.80;134.52;;;0.30;99.90;;;;;;5065808;28;20674;-54
2024/01/24 07:28:18;;;;;;;311.67;126.53;;;0.30;99.90;;;;;;5066698;28;20035;-54
2024/01/24 07:30:45;;;;;;;324.00;127.97;;;0.30;99.90;;;;;;5066206;28;20024;-54
2024/01/24 07:33:10;;;;;;;319.52;126.30;;;0.40;99.90;;;;;;5066158;28;20214;-54
2024/01/24 07:35:36;;;;;;;323.60;127.15;;;0.50;99.90;;;;;;5065936;28;20375;-54
2024/01/24 07:38:03;;;;;;;327.50;136.70;;;0.40;99.90;;;;;;5087913;28;20329;-54
2024/01/24 07:40:29;;;;;;;356.50;147.05;;;0.40;99.90;;;;;;5095074;28;20032;-54
2024/01/24 07:42:55;;;;;;;343.55;137.77;;;0.40;99.90;;;;;;5095230;28;20032;-54
2024/01/24 07:45:21;;;;;;;319.33;136.32;;;0.50;99.90;;;;;;5096563;28;20111;-54
2024/01/24 07:47:48;;;;;;;332.58;134.13;;;0.30;99.90;;;;;;5096452;28;20098;-54
2024/01/24 07:50:14;;;;;;;308.02;128.23;;;0.30;99.90;;;;;;5096753;28;20441;-54
2024/01/24 07:52:40;;;;;;;315.13;135.20;;;0.50;99.90;;;;;;5096576;28;20020;-54
2024/01/24 07:55:06;;;;;;;342.05;135.75;;;0.50;99.90;;;;;;5085871;28;20031;-54
2024/01/24 07:57:32;;;;;;;305.63;130.15;;;0.60;99.90;;;;;;5079393;28;20036;-54
2024/01/24 07:59:58;;;;;;;321.52;135.02;;;0.60;99.90;;;;;;5096071;28;20062;-57
2024/01/24 08:02:24;;;;;;;339.98;135.85;;;0.60;99.90;;;;;;5094592;28;20096;-57
2024/01/24 08:04:50;;;;;;;317.55;129.73;;;0.60;99.90;;;;;;5096109;28;20039;-57
2024/01/24 08:07:16;;;;;;;298.50;126.88;;;0.80;99.90;;;;;;5096344;28;20053;-57
2024/01/24 08:09:42;;;;;;;303.50;131.05;;;1.00;99.90;;;;;;5083897;28;20029;-57
2024/01/24 08:12:09;;;;;;;297.98;131.70;;;1.10;99.90;;;;;;5076067;28;20025;-57
2024/01/24 08:14:35;;;;;;;310.88;136.23;;;1.00;99.90;;;;;;5075775;28;20044;-57
2024/01/24 08:17:05;;;;;;;280.48;131.68;;;1.10;99.90;;;;;;5075686;28;20031;-57
2024/01/24 08:19:32;;;;;;;283.20;129.82;;;1.30;99.90;;;;;;5091134;28;20027;-57
2024/01/24 08:21:58;;;;;;;287.20;132.93;;;1.30;99.90;;;;;;5088773;28;20029;-57
2024/01/24 08:24:25;;;;;;;295.23;133.65;;;1.50;99.90;;;;;;5088158;28;20032;-57
2024/01/24 08:26:51;;;;;;;273.20;127.93;;;1.60;99.90;;;;;;5094473;28;20111;-57
2024/01/24 08:29:18;;;;;;;285.73;132.73;;;1.80;99.90;;;;;;5095614;28;20034;-57
2024/01/24 08:31:44;;;;;;;276.00;130.10;;;1.80;99.90;;;;;;5093544;28;20051;-57
2024/01/24 08:34:10;;;;;;;261.90;125.95;;;1.80;99.90;;;;;;5095949;28;20400;-57
2024/01/24 08:36:36;;;;;;;274.95;129.23;;;1.90;99.90;;;;;;5095769;28;20044;-57
2024/01/24 08:39:04;;;;;;;265.48;129.50;;;2.20;99.90;;;;;;5095740;28;20102;-57
2024/01/24 08:41:30;;;;;;;269.30;130.27;;;2.30;99.90;;;;;;5095619;28;20028;-57
2024/01/24 08:43:57;;;;;;;273.05;133.88;;;2.50;99.90;;;;;;5095509;28;20034;-57
2024/01/24 08:46:24;;;;;;;272.77;134.60;;;2.70;99.90;;;;;;5094377;28;20420;-57
2024/01/24 08:48:50;;;;;;;311.75;148.70;;;2.80;99.90;;;;;;5093040;28;20055;-57
2024/01/24 08:51:16;;;;;;;287.95;140.95;;;2.80;99.90;;;;;;5093966;28;20051;-57
2024/01/24 08:53:42;;;;;;;296.52;144.57;;;2.90;99.90;;;;;;5093332;28;20039;-57
2024/01/24 08:56:11;;;;;;;297.90;148.93;;;2.70;99.90;;;;;;5089643;28;20081;-57
2024/01/24 08:58:37;;;;;;;304.80;147.80;;;2.80;99.90;;;;;;5094711;28;20067;-57
2024/01/24 09:01:03;;;;;;;301.80;149.60;;;2.90;99.90;;;;;;5094094;28;20028;-57
2024/01/24 09:03:29;;;;;;;311.13;150.38;;;3.40;99.90;;;;;;5094582;28;20020;-58
2024/01/24 09:05:55;;;;;;;304.13;150.75;;;3.90;99.90;;;;;;5085768;28;20054;-58
2024/01/24 09:08:20;;;;;;;298.73;150.63;;;4.30;99.90;;;;;;5094388;28;20036;-58
2024/01/24 09:10:47;;;;;;;320.75;152.50;;;4.80;99.90;;;;;;5095238;28;20020;-58
2024/01/24 09:13:13;;;;;;;303.63;151.55;;;5.60;99.90;;;;;;5094281;28;20057;-58
2024/01/24 09:15:39;;;;;;;303.33;152.55;;;6.30;98.80;;;;;;5088375;28;20024;-58
2024/01/24 09:18:08;;;;;;;317.70;156.88;;;6.20;97.60;;;;;;5081649;28;20055;-58
2024/01/24 09:20:33;;;;;;;291.67;150.00;;;6.10;99.20;;;;;;5086577;28;20024;-58
2024/01/24 09:22:59;;;;;;;297.08;152.27;;;6.40;98.10;;;;;;5083066;28;20035;-58
2024/01/24 09:25:25;;;;;;;293.02;149.00;;;6.20;98.30;;;;;;5094800;28;20466;-58
2024/01/24 09:27:51;;;;;;;314.45;159.48;;;6.10;97.70;;;;;;5092755;28;20024;-58
2024/01/24 09:30:18;;;;;;;296.90;152.82;;;6.00;96.50;;;;;;5087660;28;20083;-58
2024/01/24 09:32:44;;;;;;;313.92;154.70;;;5.60;98.80;;;;;;5075356;28;20038;-58
2024/01/24 09:35:10;;;;;;;301.55;155.60;;;5.40;99.30;;;;;;5088783;28;20111;-58
2024/01/24 09:37:35;;;;;;;293.70;151.63;;;6.20;98.90;;;;;;5094855;28;20027;-58
2024/01/24 09:40:01;;;;;;;281.45;152.68;;;6.50;99.00;;;;;;5090328;28;20040;-58
2024/01/24 09:42:28;;;;;;;290.20;152.65;;;7.50;96.20;;;;;;5083476;28;20025;-58
2024/01/24 09:44:58;;;;;;;280.10;149.50;;;7.80;94.30;;;;;;5091257;28;20066;-58
2024/01/24 09:47:27;;;;;;;286.90;154.20;;;7.70;94.60;;;;;;5097153;28;20537;-58
2024/01/24 09:49:53;;;;;;;292.27;152.90;;;7.50;94.20;;;;;;5098479;28;20339;-58
2024/01/24 09:52:24;;;;;;;292.67;157.63;;;6.70;96.10;;;;;;5098175;28;20109;-58
2024/01/24 09:54:57;;;;;;;324.58;173.98;;;6.70;95.60;;;;;;5098453;28;20024;-58
2024/01/24 09:57:24;;;;;;;339.27;182.38;;;6.00;96.50;;;;;;5098663;28;20032;-58
2024/01/24 09:59:51;;;;;;;320.70;174.98;;;6.20;97.80;;;;;;5098356;28;20382;-58
2024/01/24 10:02:17;;;;;;;346.25;191.25;;;6.10;97.80;;;;;;5098082;28;20032;-58
2024/01/24 10:04:46;;;;;;;308.52;169.10;;;6.00;99.00;;;;;;5098286;28;20096;-58
2024/01/24 10:07:13;;;;;;;354.15;198.85;;;6.30;98.20;;;;;;5096824;28;20146;-58
2024/01/24 10:09:39;;;;;;;438.50;228.98;;;6.90;98.10;;;;;;5086708;28;20074;-58
2024/01/24 10:12:05;;;;;;;369.75;203.65;;;6.80;96.60;;;;;;5077953;28;20100;-58
2024/01/24 10:14:32;;;;;;;377.95;211.35;;;7.10;97.20;;;;;;5077619;28;20039;-58
2024/01/24 10:16:58;;;;;;;401.90;228.73;;;7.20;96.10;;;;;;5080067;28;20020;-58
2024/01/24 10:19:24;;;;;;;362.75;206.57;;;6.50;95.90;;;;;;5098313;28;20024;-58
2024/01/24 10:21:54;;;;;;;369.95;210.48;;;6.50;97.60;;;;;;5097805;28;20028;-58
2024/01/24 10:24:21;;;;;;;393.40;216.00;;;6.40;97.90;;;;;;5097522;28;20036;-58
2024/01/24 10:26:47;;;;;;;357.73;193.07;;;6.40;97.80;;;;;;5097833;28;20081;-58
2024/01/24 10:29:13;;;;;;;322.33;170.73;;;6.20;98.10;;;;;;5097838;28;20016;-58
2024/01/24 10:31:39;;;;;;;343.23;174.70;;;6.20;98.60;;;;;;5097507;28;20093;-58
2024/01/24 10:34:06;;;;;;;334.65;172.48;;;6.00;98.60;;;;;;5097456;28;20032;-58
2024/01/24 10:36:38;;;;;;;323.83;171.15;;;5.80;99.20;;;;;;5097568;28;20048;-58
2024/01/24 10:39:06;;;;;;;331.67;171.13;;;5.60;99.80;;;;;;5095978;28;20494;-58
2024/01/24 10:41:39;;;;;;;341.80;176.80;;;5.60;99.90;;;;;;5089462;28;20078;-58
2024/01/24 10:44:10;;;;;;;329.15;166.32;;;5.60;99.90;;;;;;5095396;28;20036;-58
2024/01/24 10:46:37;;;;;;;319.17;158.15;;;5.40;99.90;;;;;;5094777;28;20027;-58
2024/01/24 10:49:07;;;;;;;314.40;157.60;;;5.30;99.90;;;;;;5097085;28;20171;-58
2024/01/24 10:51:33;;;;;;;326.80;166.23;;;5.10;99.90;;;;;;5089847;28;20591;-58
2024/01/24 10:54:02;;;;;;;314.05;155.40;;;5.00;99.90;;;;;;5097118;28;20028;-58
2024/01/24 10:56:29;;;;;;;334.52;160.50;;;4.90;99.90;;;;;;5097953;28;20378;-58
2024/01/24 10:59:01;;;;;;;299.75;152.48;;;4.70;99.90;;;;;;5096799;28;20024;-57
2024/01/24 11:01:27;;;;;;;290.77;144.93;;;4.50;99.90;;;;;;5097039;28;20103;-58
2024/01/24 11:03:55;;;;;;;296.23;143.52;;;4.50;99.90;;;;;;5095830;28;20123;-58
2024/01/24 11:06:24;;;;;;;300.65;140.73;;;4.40;99.90;;;;;;5096617;28;20039;-58
2024/01/24 11:09:08;;;;;;;297.83;145.05;;;4.20;99.90;;;;;;5092251;28;20087;-58
2024/01/24 11:11:37;;;;;;;315.40;151.98;;;4.10;99.90;;;;;;5076672;28;20078;-58
2024/01/24 11:14:03;;;;;;;318.45;149.02;;;4.10;99.90;;;;;;5084902;28;20028;-58
2024/01/24 11:16:38;;;;;;;314.73;149.95;;;4.30;99.90;;;;;;5095534;28;20089;-58
2024/01/24 11:19:23;;;;;;;313.25;148.25;;;4.20;99.90;;;;;;5095672;28;20066;-57
2024/01/24 11:21:49;;;;;;;308.58;147.63;;;4.20;99.90;;;;;;5096447;28;20087;-58
2024/01/24 11:24:40;;;;;;;298.55;145.35;;;4.50;99.90;;;;;;5095479;28;20030;-58
2024/01/24 11:27:36;;;;;;;;;;;4.70;99.90;;;;;;5097110;28;20501;-58
2024/01/24 11:30:27;;;;;;;328.42;152.65;;;4.70;99.90;;;;;;5086339;28;19919;-58
2024/01/24 11:32:57;;;;;;;333.00;156.13;;;4.90;99.90;;;;;;5087188;28;20028;-58
2024/01/24 11:35:38;;;;;;;310.15;151.88;;;4.90;99.90;;;;;;5090894;28;20024;-58
2024/01/24 11:38:22;;;;;;;384.85;167.40;;;5.10;99.90;;;;;;5096260;28;20085;-58
2024/01/24 11:40:55;;;;;;;322.15;153.15;;;5.20;99.90;;;;;;5094791;28;20036;-58
2024/01/24 11:43:26;;;;;;;329.90;154.95;;;5.70;99.90;;;;;;5094839;28;20482;-58
2024/01/24 11:46:01;;;;;;;336.67;161.43;;;6.40;99.90;;;;;;5094310;28;20084;-58
2024/01/24 11:48:29;;;;;;;331.85;158.27;;;6.80;99.90;;;;;;5096066;28;20027;-58
2024/01/24 11:51:01;;;;;;;329.42;157.38;;;7.40;99.90;;;;;;5092321;28;20394;-58
2024/01/24 11:53:28;;;;;;;326.00;157.75;;;8.10;99.70;;;;;;5091105;28;20553;-58
2024/01/24 11:56:05;;;;;;;329.67;161.88;;;8.40;97.90;;;;;;5095808;28;20016;-58
2024/01/24 11:58:31;;;;;;;327.05;155.13;;;8.80;97.20;;;;;;5093929;28;20026;-59
2024/01/24 12:01:07;;;;;;;323.05;153.77;;;9.90;96.40;;;;;;5096093;28;20024;-58
2024/01/24 12:03:33;;;;;;;315.05;151.13;;;10.40;94.50;;;;;;5094430;28;20497;-58
2024/01/24 12:06:00;;;;;;;327.17;158.70;;;10.60;92.60;;;;;;5095290;28;20016;-58
2024/01/24 12:08:28;;;;;;;329.50;162.90;;;10.60;91.90;;;;;;5095293;28;20024;-58
2024/01/24 12:10:54;;;;;;;334.67;162.00;;;10.30;91.90;;;;;;5092635;28;20447;-58
2024/01/24 12:13:26;;;;;;;330.67;162.75;;;10.80;91.30;;;;;;5093722;28;20028;-58
2024/01/24 12:15:54;;;;;;;347.92;170.45;;;11.10;90.10;;;;;;5088487;28;20034;-58
2024/01/24 12:18:20;;;;;;;337.98;172.10;;;11.30;87.70;;;;;;5093071;28;20036;-58